createdAt,value
2019-03-04T00:01:50.762Z,20.87
2019-03-04T00:04:20.112Z,23.73
2019-03-04T00:06:49.506Z,22.53
2019-03-04T00:09:18.809Z,23.73
2019-03-04T00:11:48.103Z,23.03
2019-03-04T00:14:17.473Z,23.37
2019-03-04T00:16:46.910Z,20.93
2019-03-04T00:19:16.217Z,22.53
2019-03-04T00:21:45.626Z,21.73
2019-03-04T00:24:14.974Z,22.07
2019-03-04T00:26:44.387Z,21.20
2019-03-04T00:29:13.778Z,21.67
2019-03-04T00:31:43.126Z,23.67
2019-03-04T00:34:12.457Z,18.90
2019-03-04T00:36:41.854Z,22.60
2019-03-04T00:39:12.331Z,22.63
2019-03-04T00:41:41.682Z,23.43
2019-03-04T00:44:11.060Z,23.10
2019-03-04T00:46:40.412Z,24.30
2019-03-04T00:49:09.826Z,16.63
2019-03-04T00:51:39.198Z,21.43
2019-03-04T00:54:08.593Z,22.27
2019-03-04T00:56:38.020Z,17.33
2019-03-04T00:59:07.397Z,21.47
2019-03-04T01:01:36.818Z,22.20
2019-03-04T01:04:06.188Z,22.93
2019-03-04T01:06:35.691Z,21.93
2019-03-04T01:09:07.858Z,24.10
2019-03-04T01:11:37.237Z,23.13
2019-03-04T01:14:06.594Z,22.50
2019-03-04T01:16:35.978Z,22.20
2019-03-04T01:19:05.400Z,24.37
2019-03-04T01:21:34.809Z,22.70
2019-03-04T01:24:04.140Z,22.53
2019-03-04T01:26:33.575Z,21.40
2019-03-04T01:29:02.993Z,19.43
2019-03-04T01:31:32.398Z,22.30
2019-03-04T01:34:01.791Z,21.07
2019-03-04T01:36:31.151Z,22.93
2019-03-04T01:39:00.530Z,21.33
2019-03-04T01:41:29.846Z,20.87
2019-03-04T01:43:59.210Z,18.43
2019-03-04T01:46:28.599Z,21.93
2019-03-04T01:48:58.026Z,18.87
2019-03-04T01:51:27.416Z,21.23
2019-03-04T01:53:56.751Z,19.20
2019-03-04T01:56:26.208Z,17.53
2019-03-04T01:58:55.567Z,20.60
2019-03-04T02:01:25.038Z,20.63
2019-03-04T02:03:54.618Z,20.90
2019-03-04T02:06:23.978Z,21.77
2019-03-04T02:08:53.330Z,18.50
2019-03-04T02:11:22.801Z,19.70
2019-03-04T02:13:52.186Z,20.83
2019-03-04T02:16:21.493Z,20.97
2019-03-04T02:18:50.952Z,21.37
2019-03-04T02:21:20.339Z,22.00
2019-03-04T02:23:49.770Z,20.50
2019-03-04T02:26:22.933Z,15.77
2019-03-04T02:28:52.550Z,21.10
2019-03-04T02:31:21.921Z,19.27
2019-03-04T02:33:51.353Z,15.30
2019-03-04T02:36:20.789Z,13.73
2019-03-04T02:38:50.162Z,18.23
2019-03-04T02:41:19.493Z,12.07
2019-03-04T02:43:48.868Z,18.70
2019-03-04T02:46:18.244Z,17.90
2019-03-04T02:48:47.922Z,15.70
2019-03-04T02:51:17.308Z,18.30
2019-03-04T02:53:46.701Z,16.67
2019-03-04T02:56:16.166Z,16.97
2019-03-04T02:58:45.718Z,16.10
2019-03-04T03:01:15.716Z,15.80
2019-03-04T03:03:45.150Z,14.60
2019-03-04T03:06:14.577Z,14.60
2019-03-04T03:08:44.007Z,14.07
2019-03-04T03:11:13.434Z,9.23
2019-03-04T03:13:42.806Z,12.97
2019-03-04T03:16:12.131Z,13.43
2019-03-04T03:18:41.445Z,12.37
2019-03-04T03:21:10.886Z,12.00
2019-03-04T03:23:40.287Z,13.50
2019-03-04T03:26:09.652Z,10.03
2019-03-04T03:28:39.005Z,9.93
2019-03-04T03:31:08.486Z,12.33
2019-03-04T03:33:37.946Z,11.00
2019-03-04T03:36:07.315Z,11.53
2019-03-04T03:38:36.661Z,11.87
2019-03-04T03:41:06.154Z,10.90
2019-03-04T03:43:35.882Z,12.60
2019-03-04T03:46:05.302Z,11.07
2019-03-04T03:48:34.701Z,10.77
2019-03-04T03:51:04.152Z,8.83
2019-03-04T03:53:33.538Z,11.90
2019-03-04T03:56:02.900Z,11.13
2019-03-04T03:58:32.310Z,8.90
2019-03-04T04:01:01.742Z,10.90
2019-03-04T04:03:31.199Z,10.57
2019-03-04T04:06:00.552Z,8.80
2019-03-04T04:08:29.939Z,8.97
2019-03-04T04:10:59.374Z,9.60
2019-03-04T04:13:28.917Z,9.13
2019-03-04T04:15:58.295Z,9.67
2019-03-04T04:18:27.611Z,9.73
2019-03-04T04:20:57.052Z,10.00
2019-03-04T04:23:26.392Z,9.43
2019-03-04T04:25:55.786Z,10.10
2019-03-04T04:28:25.108Z,10.40
2019-03-04T04:30:54.415Z,8.93
2019-03-04T04:33:23.863Z,11.13
2019-03-04T04:35:53.202Z,10.07
2019-03-04T04:38:22.511Z,10.20
2019-03-04T04:40:51.927Z,9.40
2019-03-04T04:43:21.314Z,9.40
2019-03-04T04:45:50.621Z,8.90
2019-03-04T04:48:19.975Z,8.10
2019-03-04T04:50:49.407Z,8.20
2019-03-04T04:53:19.778Z,10.13
2019-03-04T04:55:49.140Z,8.80
2019-03-04T04:58:18.615Z,7.80
2019-03-04T05:00:48.054Z,8.27
2019-03-04T05:03:17.502Z,8.23
2019-03-04T05:05:46.937Z,7.37
2019-03-04T05:08:16.341Z,8.10
2019-03-04T05:10:45.769Z,8.47
2019-03-04T05:13:15.376Z,7.63
2019-03-04T05:15:44.781Z,8.43
2019-03-04T05:18:14.213Z,7.73
2019-03-04T05:20:43.624Z,7.40
2019-03-04T05:23:12.962Z,6.90
2019-03-04T05:25:42.475Z,7.33
2019-03-04T05:28:11.945Z,8.47
2019-03-04T05:30:41.316Z,6.23
2019-03-04T05:33:10.714Z,7.30
2019-03-04T05:35:40.167Z,6.70
2019-03-04T05:38:09.482Z,5.63
2019-03-04T05:40:38.830Z,6.80
2019-03-04T05:43:08.186Z,7.83
2019-03-04T05:45:37.558Z,6.93
2019-03-04T05:48:07.710Z,6.70
2019-03-04T05:50:37.397Z,7.40
2019-03-04T05:53:06.798Z,7.13
2019-03-04T05:55:36.162Z,6.10
2019-03-04T05:58:05.550Z,6.63
2019-03-04T06:00:39.674Z,6.37
2019-03-04T06:03:09.611Z,6.63
2019-03-04T06:05:38.988Z,7.50
2019-03-04T06:08:09.167Z,6.20
2019-03-04T06:10:38.473Z,6.03
2019-03-04T06:13:07.915Z,6.40
2019-03-04T06:15:37.263Z,7.10
2019-03-04T06:18:06.602Z,6.73
2019-03-04T06:20:36.022Z,7.20
2019-03-04T06:23:05.327Z,6.27
2019-03-04T06:25:34.748Z,6.60
2019-03-04T06:28:04.093Z,5.67
2019-03-04T06:30:33.524Z,6.47
2019-03-04T06:33:02.879Z,6.70
2019-03-04T06:35:32.214Z,5.50
2019-03-04T06:38:01.581Z,6.37
2019-03-04T06:40:31.048Z,7.07
2019-03-04T06:43:00.408Z,6.70
2019-03-04T06:45:29.914Z,5.63
2019-03-04T06:47:59.319Z,7.37
2019-03-04T06:50:51.681Z,6.57
2019-03-04T06:53:58.841Z,6.50
2019-03-04T06:56:50.684Z,6.13
2019-03-04T07:00:07.862Z,6.33
2019-03-04T07:02:37.926Z,7.13
2019-03-04T07:05:48.249Z,6.90
2019-03-04T07:09:01.949Z,7.60
2019-03-04T07:11:31.875Z,6.17
2019-03-04T07:14:01.240Z,6.80
2019-03-04T07:16:32.089Z,6.70
2019-03-04T07:19:04.148Z,6.30
2019-03-04T07:21:33.665Z,7.10
2019-03-04T07:24:03.179Z,3.83
2019-03-04T07:26:32.582Z,6.23
2019-03-04T07:29:01.895Z,5.90
2019-03-04T07:31:31.270Z,5.17
2019-03-04T07:34:00.653Z,6.20
2019-03-04T07:36:30.025Z,4.97
2019-03-04T07:39:05.773Z,5.17
2019-03-04T07:41:37.210Z,6.90
2019-03-04T07:44:06.584Z,6.37
2019-03-04T07:46:35.926Z,5.73
2019-03-04T07:49:05.678Z,5.97
2019-03-04T07:51:35.674Z,6.87
2019-03-04T07:54:05.554Z,6.60
2019-03-04T07:56:34.905Z,20.00
2019-03-04T07:59:04.660Z,10.77
2019-03-04T08:01:34.031Z,6.53
2019-03-04T08:04:03.399Z,5.03
2019-03-04T08:06:32.837Z,5.57
2019-03-04T08:09:57.276Z,4.53
2019-03-04T08:13:10.950Z,5.97
2019-03-04T08:15:49.495Z,5.33
2019-03-04T08:18:19.058Z,4.63
2019-03-04T08:20:48.445Z,6.33
2019-03-04T08:23:17.904Z,12.00
2019-03-04T08:25:47.315Z,5.67
2019-03-04T08:28:16.958Z,5.60
2019-03-04T08:30:46.335Z,3.20
2019-03-04T08:33:15.703Z,4.50
2019-03-04T08:35:45.303Z,4.97
2019-03-04T08:38:14.638Z,4.80
2019-03-04T08:40:44.014Z,4.53
2019-03-04T08:43:13.338Z,4.77
2019-03-04T08:45:42.931Z,5.97
2019-03-04T08:48:12.314Z,5.70
2019-03-04T08:50:41.725Z,5.10
2019-03-04T08:53:11.086Z,4.83
2019-03-04T08:55:40.499Z,4.50
2019-03-04T08:58:10.002Z,5.17
2019-03-04T09:00:39.837Z,4.20
2019-03-04T09:03:09.203Z,4.50
2019-03-04T09:05:38.690Z,5.50
2019-03-04T09:08:08.085Z,4.23
2019-03-04T09:10:37.418Z,5.37
2019-03-04T09:13:07.055Z,5.07
2019-03-04T09:15:36.451Z,4.33
2019-03-04T09:18:08.597Z,3.40
2019-03-04T09:20:38.153Z,4.90
2019-03-04T09:23:07.457Z,3.53
2019-03-04T09:25:39.775Z,4.10
2019-03-04T09:28:09.177Z,4.83
2019-03-04T09:30:38.636Z,4.17
2019-03-04T09:33:08.048Z,4.00
2019-03-04T09:35:37.691Z,4.67
2019-03-04T09:38:07.070Z,4.00
2019-03-04T09:40:38.223Z,3.90
2019-03-04T09:43:07.631Z,4.83
2019-03-04T09:45:39.052Z,3.33
2019-03-04T09:48:08.135Z,3.37
2019-03-04T09:50:37.501Z,4.40
2019-03-04T09:53:06.964Z,4.33
2019-03-04T09:55:36.459Z,3.77
2019-03-04T09:58:06.042Z,3.37
2019-03-04T10:00:38.511Z,4.00
2019-03-04T10:03:46.319Z,3.23
2019-03-04T10:06:31.570Z,3.47
2019-03-04T10:09:36.903Z,4.20
2019-03-04T10:12:52.655Z,3.63
2019-03-04T10:16:05.794Z,4.60
2019-03-04T10:19:00.515Z,3.57
2019-03-04T10:21:50.444Z,2.97
2019-03-04T10:25:15.999Z,4.63
2019-03-04T10:28:35.896Z,3.33
2019-03-04T10:31:48.687Z,4.40
2019-03-04T10:35:05.862Z,5.10
2019-03-04T10:37:59.504Z,4.53
2019-03-04T10:40:58.450Z,4.97
2019-03-04T10:44:11.226Z,3.50
2019-03-04T10:46:56.954Z,3.43
2019-03-04T10:49:28.280Z,4.13
2019-03-04T10:51:57.859Z,3.93
2019-03-04T10:54:27.250Z,4.13
2019-03-04T10:56:56.610Z,4.73
2019-03-04T10:59:26.030Z,4.70
2019-03-04T11:01:55.417Z,3.73
2019-03-04T11:04:24.802Z,4.23
2019-03-04T11:06:54.966Z,2.77
2019-03-04T11:09:24.554Z,4.53
2019-03-04T11:11:53.926Z,3.87
2019-03-04T11:14:23.498Z,3.93
2019-03-04T11:16:52.838Z,4.47
2019-03-04T11:19:22.239Z,2.80
2019-03-04T11:21:51.602Z,3.97
2019-03-04T11:24:22.334Z,3.03
2019-03-04T11:26:51.965Z,3.83
2019-03-04T11:29:21.394Z,3.03
2019-03-04T11:31:50.783Z,4.57
2019-03-04T11:34:20.202Z,3.80
2019-03-04T11:36:49.782Z,4.20
2019-03-04T11:39:44.817Z,3.33
2019-03-04T11:42:14.194Z,3.20
2019-03-04T11:44:43.630Z,2.90
2019-03-04T11:47:13.046Z,2.93
2019-03-04T11:49:42.803Z,3.13
2019-03-04T11:52:12.157Z,3.57
2019-03-04T11:54:41.556Z,3.23
2019-03-04T11:57:10.966Z,3.20
2019-03-04T11:59:40.426Z,3.70
2019-03-04T12:02:16.340Z,4.83
2019-03-04T12:04:45.685Z,3.93
2019-03-04T12:07:15.138Z,4.90
2019-03-04T12:09:44.566Z,3.43
2019-03-04T12:12:13.880Z,4.37
2019-03-04T12:14:43.218Z,4.03
2019-03-04T12:17:12.595Z,4.00
2019-03-04T12:19:42.461Z,3.03
2019-03-04T12:22:11.908Z,3.20
2019-03-04T12:24:41.406Z,3.80
2019-03-04T12:27:10.709Z,3.33
2019-03-04T12:29:40.001Z,3.47
2019-03-04T12:32:25.086Z,3.97
2019-03-04T12:34:54.541Z,4.43
2019-03-04T12:37:24.064Z,3.63
2019-03-04T12:39:53.476Z,5.23
2019-03-04T12:42:22.851Z,3.17
2019-03-04T12:44:52.505Z,2.80
2019-03-04T12:47:22.017Z,3.33
2019-03-04T12:49:51.460Z,2.90
2019-03-04T12:52:20.796Z,2.47
2019-03-04T12:54:50.292Z,3.57
2019-03-04T12:57:19.799Z,3.93
2019-03-04T12:59:49.110Z,3.83
2019-03-04T13:02:18.570Z,2.93
2019-03-04T13:04:47.905Z,2.63
2019-03-04T13:07:17.355Z,2.33
2019-03-04T13:09:46.892Z,2.23
2019-03-04T13:12:16.240Z,2.70
2019-03-04T13:14:45.757Z,2.97
2019-03-04T13:17:15.116Z,1.70
2019-03-04T13:19:44.461Z,3.00
2019-03-04T13:22:14.043Z,2.80
2019-03-04T13:24:43.445Z,2.90
2019-03-04T13:27:12.833Z,2.73
2019-03-04T13:29:42.195Z,2.40
2019-03-04T13:32:11.537Z,3.60
2019-03-04T13:34:41.099Z,2.30
2019-03-04T13:37:10.478Z,2.60
2019-03-04T13:39:39.901Z,2.40
2019-03-04T13:42:09.226Z,3.40
2019-03-04T13:44:38.705Z,3.07
2019-03-04T13:47:08.209Z,2.83
2019-03-04T13:49:37.550Z,3.40
2019-03-04T13:52:06.861Z,2.60
2019-03-04T13:54:36.461Z,3.03
2019-03-04T13:57:05.771Z,3.10
2019-03-04T13:59:35.229Z,3.20
2019-03-04T14:02:04.878Z,2.43
2019-03-04T14:04:34.337Z,2.50
2019-03-04T14:07:03.660Z,2.83
2019-03-04T14:09:33.008Z,2.80
2019-03-04T14:12:02.373Z,3.13
2019-03-04T14:14:31.881Z,2.80
2019-03-04T14:17:01.396Z,3.57
2019-03-04T14:19:30.809Z,2.97
2019-03-04T14:22:00.245Z,3.50
2019-03-04T14:24:29.595Z,2.73
2019-03-04T14:26:59.103Z,4.00
2019-03-04T14:29:28.491Z,3.57
2019-03-04T14:31:57.832Z,5.80
2019-03-04T14:34:27.190Z,2.83
2019-03-04T14:36:56.549Z,2.43
2019-03-04T14:39:25.890Z,3.10
2019-03-04T14:41:55.231Z,3.00
2019-03-04T14:44:24.658Z,3.30
2019-03-04T14:46:54.081Z,2.83
2019-03-04T14:49:23.397Z,5.10
2019-03-04T14:51:52.759Z,3.43
2019-03-04T14:54:22.131Z,2.27
2019-03-04T14:56:51.528Z,1.80
2019-03-04T14:59:20.893Z,3.17
2019-03-04T15:01:50.356Z,2.70
2019-03-04T15:04:19.701Z,3.00
2019-03-04T15:06:49.124Z,2.77
2019-03-04T15:09:18.504Z,3.13
2019-03-04T15:11:47.879Z,3.27
2019-03-04T15:14:17.223Z,3.70
2019-03-04T15:16:46.630Z,3.70
2019-03-04T15:19:16.132Z,3.37
2019-03-04T15:21:45.567Z,3.60
2019-03-04T15:24:14.924Z,3.43
2019-03-04T15:26:44.467Z,3.93
2019-03-04T15:29:13.830Z,3.30
2019-03-04T15:31:43.292Z,3.57
2019-03-04T15:34:12.678Z,2.90
2019-03-04T15:36:42.044Z,2.50
2019-03-04T15:39:22.990Z,2.87
2019-03-04T15:41:50.233Z,2.43
2019-03-04T15:44:19.924Z,3.37
2019-03-04T15:46:49.398Z,3.43
2019-03-04T15:49:18.831Z,4.07
2019-03-04T15:51:48.165Z,2.23
2019-03-04T15:54:17.702Z,3.43
2019-03-04T15:56:47.131Z,3.07
2019-03-04T15:59:16.441Z,4.10
2019-03-04T16:01:45.973Z,3.73
2019-03-04T16:04:15.373Z,4.93
2019-03-04T16:06:44.902Z,3.97
2019-03-04T16:09:17.365Z,3.10
2019-03-04T16:11:46.646Z,3.60
2019-03-04T16:14:16.178Z,3.13
2019-03-04T16:16:45.605Z,5.10
2019-03-04T16:19:14.981Z,4.03
2019-03-04T16:21:44.423Z,3.93
2019-03-04T16:24:13.994Z,3.87
2019-03-04T16:26:43.386Z,4.13
2019-03-04T16:29:12.743Z,4.37
2019-03-04T16:31:42.311Z,4.93
2019-03-04T16:34:11.759Z,4.53
2019-03-04T16:36:41.421Z,3.20
2019-03-04T16:39:11.102Z,4.50
2019-03-04T16:41:40.474Z,3.40
2019-03-04T16:44:09.842Z,3.53
2019-03-04T16:46:39.251Z,4.80
2019-03-04T16:49:08.679Z,4.03
2019-03-04T16:51:38.018Z,4.20
2019-03-04T16:54:07.344Z,2.83
2019-03-04T16:56:36.822Z,3.70
2019-03-04T16:59:06.218Z,2.90
2019-03-04T17:01:35.594Z,3.13
2019-03-04T17:04:04.975Z,3.13
2019-03-04T17:06:34.318Z,3.90
2019-03-04T17:09:05.843Z,3.50
2019-03-04T17:11:35.351Z,3.70
2019-03-04T17:14:04.775Z,2.83
2019-03-04T17:16:34.138Z,3.80
2019-03-04T17:19:03.526Z,4.80
2019-03-04T17:21:32.928Z,2.90
2019-03-04T17:24:02.533Z,3.20
2019-03-04T17:26:33.369Z,4.77
2019-03-04T17:29:02.945Z,3.47
2019-03-04T17:31:32.325Z,3.23
2019-03-04T17:34:01.701Z,4.87
2019-03-04T17:36:31.109Z,3.07
2019-03-04T17:39:00.618Z,4.13
2019-03-04T17:41:29.942Z,5.27
2019-03-04T17:43:59.422Z,4.70
2019-03-04T17:46:28.894Z,4.07
2019-03-04T17:48:58.368Z,3.40
2019-03-04T17:51:27.746Z,3.87
2019-03-04T17:53:57.078Z,4.63
2019-03-04T17:56:26.570Z,4.20
2019-03-04T17:58:56.010Z,3.93
2019-03-04T18:01:25.438Z,5.17
2019-03-04T18:03:58.447Z,6.10
2019-03-04T18:06:29.731Z,4.47
2019-03-04T18:08:59.160Z,4.93
2019-03-04T18:11:28.553Z,4.23
2019-03-04T18:13:57.985Z,5.07
2019-03-04T18:16:27.806Z,5.70
2019-03-04T18:18:57.174Z,5.00
2019-03-04T18:21:26.582Z,5.17
2019-03-04T18:24:39.992Z,4.53
2019-03-04T18:27:26.763Z,4.50
2019-03-04T18:30:39.416Z,5.43
2019-03-04T18:33:48.293Z,5.17
2019-03-04T18:37:01.381Z,5.43
2019-03-04T18:40:07.513Z,5.03
2019-03-04T18:43:28.882Z,4.67
2019-03-04T18:46:47.205Z,6.13
2019-03-04T18:49:25.234Z,5.17
2019-03-04T18:51:54.726Z,4.90
2019-03-04T18:54:24.182Z,4.30
2019-03-04T18:57:31.016Z,5.23
2019-03-04T19:00:00.540Z,4.87
2019-03-04T19:02:29.870Z,5.07
2019-03-04T19:04:59.263Z,5.60
2019-03-04T19:07:28.844Z,5.43
2019-03-04T19:09:58.158Z,6.67
2019-03-04T19:12:27.461Z,4.37
2019-03-04T19:14:56.849Z,4.93
2019-03-04T19:17:33.347Z,6.30
2019-03-04T19:19:57.398Z,5.70
2019-03-04T19:22:26.798Z,4.90
2019-03-04T19:24:56.117Z,6.07
2019-03-04T19:27:25.439Z,6.00
2019-03-04T19:29:54.872Z,5.10
2019-03-04T19:32:24.274Z,5.40
2019-03-04T19:34:53.623Z,5.20
2019-03-04T19:37:23.050Z,5.80
2019-03-04T19:39:52.415Z,5.50
2019-03-04T19:42:21.781Z,4.63
2019-03-04T19:44:51.269Z,5.33
2019-03-04T19:47:20.601Z,5.13
2019-03-04T19:49:50.076Z,5.03
2019-03-04T19:52:19.483Z,4.47
2019-03-04T19:54:48.881Z,3.53
2019-03-04T19:57:18.316Z,3.47
2019-03-04T19:59:47.701Z,4.73
2019-03-04T20:02:17.671Z,4.20
2019-03-04T20:04:47.072Z,3.97
2019-03-04T20:07:16.796Z,4.63
2019-03-04T20:09:46.364Z,3.77
2019-03-04T20:12:15.707Z,3.57
2019-03-04T20:14:45.116Z,4.13
2019-03-04T20:17:14.518Z,5.13
2019-03-04T20:19:43.948Z,4.13
2019-03-04T20:22:13.366Z,3.00
2019-03-04T20:24:42.739Z,3.70
2019-03-04T20:27:12.117Z,4.30
2019-03-04T20:29:41.522Z,3.70
2019-03-04T20:32:10.873Z,3.53
2019-03-04T20:34:40.225Z,4.30
2019-03-04T20:37:10.074Z,4.23
2019-03-04T20:39:39.394Z,3.73
2019-03-04T20:42:08.738Z,3.77
2019-03-04T20:44:38.216Z,4.20
2019-03-04T20:47:07.583Z,4.30
2019-03-04T20:49:37.110Z,3.53
2019-03-04T20:52:06.610Z,4.00
2019-03-04T20:54:36.076Z,3.07
2019-03-04T20:57:05.824Z,3.30
2019-03-04T20:59:35.147Z,4.63
2019-03-04T21:02:04.813Z,3.80
2019-03-04T21:04:34.195Z,3.20
2019-03-04T21:07:03.671Z,4.20
2019-03-04T21:09:33.030Z,3.77
2019-03-04T21:12:02.604Z,4.13
2019-03-04T21:14:32.035Z,4.90
2019-03-04T21:17:01.448Z,4.97
2019-03-04T21:19:30.754Z,4.80
2019-03-04T21:22:00.194Z,4.37
2019-03-04T21:24:29.599Z,4.67
2019-03-04T21:26:59.481Z,4.33
2019-03-04T21:30:10.263Z,3.90
2019-03-04T21:33:07.547Z,4.43
2019-03-04T21:36:06.848Z,3.77
2019-03-04T21:38:36.355Z,4.30
2019-03-04T21:41:42.015Z,4.50
2019-03-04T21:44:47.076Z,4.13
2019-03-04T21:47:29.436Z,4.93
2019-03-04T21:49:59.194Z,4.13
2019-03-04T21:53:02.161Z,3.97
2019-03-04T21:55:42.549Z,4.50
2019-03-04T21:58:12.178Z,4.10
2019-03-04T22:00:43.390Z,4.13
2019-03-04T22:03:33.519Z,4.10
2019-03-04T22:06:03.399Z,3.50
2019-03-04T22:08:32.831Z,2.50
2019-03-04T22:11:02.713Z,3.63
2019-03-04T22:13:32.178Z,3.20
2019-03-04T22:16:01.631Z,2.47
2019-03-04T22:18:31.033Z,2.40
2019-03-04T22:21:00.496Z,2.47
2019-03-04T22:23:29.863Z,2.40
2019-03-04T22:26:02.190Z,2.53
2019-03-04T22:28:30.302Z,2.33
2019-03-04T22:30:59.708Z,1.83
2019-03-04T22:33:29.147Z,2.47
2019-03-04T22:35:58.585Z,2.23
2019-03-04T22:38:28.139Z,2.10
2019-03-04T22:40:57.501Z,2.00
2019-03-04T22:43:26.916Z,2.53
2019-03-04T22:45:56.327Z,2.33
2019-03-04T22:48:25.737Z,3.00
2019-03-04T22:50:55.087Z,3.30
2019-03-04T22:53:24.546Z,2.53
2019-03-04T22:55:53.910Z,3.20
2019-03-04T22:58:28.631Z,1.50
2019-03-04T23:01:37.862Z,1.87
2019-03-04T23:04:28.080Z,1.43
2019-03-04T23:07:21.365Z,2.90
2019-03-04T23:10:35.675Z,2.03
2019-03-04T23:13:46.378Z,2.87
2019-03-04T23:16:19.095Z,1.77
2019-03-04T23:18:48.576Z,2.20
2019-03-04T23:21:17.916Z,1.33
2019-03-04T23:23:47.207Z,0.77
2019-03-04T23:26:16.579Z,1.43
2019-03-04T23:28:46.020Z,1.30
2019-03-04T23:31:15.410Z,1.07
2019-03-04T23:33:44.705Z,1.00
2019-03-04T23:36:14.047Z,1.20
2019-03-04T23:38:43.411Z,1.57
2019-03-04T23:41:14.311Z,1.57
2019-03-04T23:43:43.893Z,1.33
2019-03-04T23:46:13.316Z,1.43
2019-03-04T23:48:42.764Z,0.87
2019-03-04T23:51:12.209Z,1.30
2019-03-04T23:53:41.560Z,1.60
2019-03-04T23:56:10.920Z,2.00
2019-03-04T23:58:40.294Z,1.23
